Airfield :
LOGIN :

Register | Disclaimer

   EN    FR    IT 

 










Legend :    VFR   Marginal VFR   IFR   Intensive IFR   Very Intensive IFR
Visi :
Ceiling :
>= 8 km
>= 3000ft
5 to 8 km
1000 to 3000 ft
1500m to 5 km
500 to 1000 ft
800 to 1500m
200 to 500 ft
< 800m
< 200 ft
Symbols :   Thunderstorms  Fog  Heavy snow  Heavy precipitations  Wind > 20 kt
SIGMETs :     Misc.  Thunderstorms  Icing  Turbulence  Mountain Waves  Volcanic Ashes







- Airport Elevation : 20 ft


EBFN - Koksijde

CURRENT METAR :
  • 241155Z AUTO 35004KT 9999 NCD 29/11 Q1019 BLU

EXPIRED METARs :
  • 241125Z AUTO 14003KT 9999 NCD 29/11 Q1019 BLU
  • 241055Z AUTO 11004KT 9999 NCD 28/13 Q1020 BLU
  • 241049Z AUTO 12003KT 7000 NCD 28/13 Q1020 WHT
  • 241025Z AUTO 10003KT 9999 NCD 27/14 Q1020 BLU
  • 240955Z AUTO VRB02KT 9999 NCD 26/13 Q1020 BLU
  • 240925Z AUTO VRB01KT 9999 NCD 25/13 Q1020 BLU

TAF TAF EBFN
Valid from the 24 at 10:00 until the 24 at 19:00 UTC


240841Z 2410/2419 12005KT 9999 SCT250
No reported NOTAMs for that airfield.



MET'MAP, your aeronautical weather chart ! - Copyright ORBIFLY December 2007 - Disclaimer

ORBIFLY MET'MAP TEAM :

Programming & Development : Alexandra Zaïnal
Concept & Development : Baudouin d'Aumeries
Co-Development & Prog : Marc-Olivier Méhu
Technical & hardware support : Manuel Goepfert

Contact : metmap@orbifly.com




SOURCES & CREDITS :

   NOAA